createdAt,value
2023-01-08T00:00:14.755Z,0
2023-01-08T00:01:15.479Z,0
2023-01-08T00:02:16.971Z,0
2023-01-08T00:03:17.386Z,0
2023-01-08T00:04:18.460Z,0
2023-01-08T00:05:18.610Z,0
2023-01-08T00:06:18.126Z,0
2023-01-08T00:07:19.360Z,0
2023-01-08T00:08:19.276Z,0
2023-01-08T00:09:20.192Z,0
2023-01-08T00:10:20.562Z,0
2023-01-08T00:11:21.246Z,0
2023-01-08T00:12:21.924Z,0
2023-01-08T00:13:21.849Z,0
2023-01-08T00:14:22.572Z,0
2023-01-08T00:15:22.753Z,0
2023-01-08T00:16:24.284Z,0
2023-01-08T00:17:25.126Z,0
2023-01-08T00:18:24.803Z,0
2023-01-08T00:19:25.995Z,0
2023-01-08T00:20:26.530Z,0
2023-01-08T00:21:26.851Z,0
2023-01-08T00:22:26.764Z,0
2023-01-08T00:23:27.981Z,0
2023-01-08T00:24:28.173Z,0
2023-01-08T00:25:29.303Z,0
2023-01-08T00:26:29.937Z,0
2023-01-08T00:27:30.291Z,0
2023-01-08T00:28:31.512Z,0
2023-01-08T00:29:32.955Z,0
2023-01-08T00:30:33.268Z,0
2023-01-08T00:31:33.663Z,0
2023-01-08T00:32:34.295Z,0
2023-01-08T00:33:34.226Z,0
2023-01-08T00:34:34.875Z,0
2023-01-08T00:35:35.313Z,0
2023-01-08T00:36:36.387Z,0
2023-01-08T00:37:36.605Z,0
2023-01-08T00:38:37.285Z,0
2023-01-08T00:39:37.912Z,0
2023-01-08T00:40:38.950Z,0
2023-01-08T00:41:39.165Z,0
2023-01-08T00:42:40.115Z,0
2023-01-08T00:43:40.780Z,0
2023-01-08T00:44:41.541Z,0
2023-01-08T00:45:42.253Z,0
2023-01-08T00:46:42.315Z,0
2023-01-08T00:47:43.764Z,0
2023-01-08T00:48:43.709Z,0
2023-01-08T00:49:43.615Z,0
2023-01-08T00:50:44.812Z,0
2023-01-08T00:51:45.482Z,0
2023-01-08T00:52:46.691Z,0
2023-01-08T00:53:47.641Z,0
2023-01-08T00:54:48.569Z,0
2023-01-08T00:55:49.226Z,0
2023-01-08T00:56:49.415Z,0
2023-01-08T00:57:50.342Z,0
2023-01-08T00:58:50.772Z,0
2023-01-08T00:59:52.133Z,0
2023-01-08T01:00:52.920Z,0
2023-01-08T01:01:53.511Z,0
2023-01-08T01:02:54.229Z,0
2023-01-08T01:03:54.081Z,0
2023-01-08T01:04:54.092Z,0
2023-01-08T01:05:55.377Z,0
2023-01-08T01:06:55.710Z,0
2023-01-08T01:07:56.955Z,0
2023-01-08T01:08:56.612Z,0
2023-01-08T01:09:57.543Z,0
2023-01-08T01:10:57.876Z,0
2023-01-08T01:11:58.118Z,0
2023-01-08T01:12:58.333Z,0
2023-01-08T01:13:59.618Z,0
2023-01-08T01:14:59.940Z,0
2023-01-08T01:16:00.678Z,0
2023-01-08T01:17:01.000Z,0
2023-01-08T01:18:01.507Z,0
2023-01-08T01:19:02.077Z,0
2023-01-08T01:20:02.415Z,0
2023-01-08T01:21:02.638Z,0
2023-01-08T01:22:02.969Z,0
2023-01-08T01:23:03.189Z,0
2023-01-08T01:24:03.864Z,0
2023-01-08T01:25:05.070Z,0
2023-01-08T01:26:05.069Z,0
2023-01-08T01:27:06.014Z,0
2023-01-08T01:28:07.518Z,0
2023-01-08T01:29:07.950Z,0
2023-01-08T01:30:08.587Z,0
2023-01-08T01:31:09.591Z,0
2023-01-08T01:32:09.675Z,0
2023-01-08T01:33:11.132Z,0
2023-01-08T01:34:11.370Z,0
2023-01-08T01:35:11.600Z,0
2023-01-08T01:36:11.864Z,0
2023-01-08T01:37:13.041Z,0
2023-01-08T01:38:12.991Z,0
2023-01-08T01:39:13.643Z,0
2023-01-08T01:40:14.154Z,0
2023-01-08T01:41:14.188Z,0
2023-01-08T01:42:14.434Z,0
2023-01-08T01:43:15.355Z,0
2023-01-08T01:44:15.845Z,0
2023-01-08T01:45:16.168Z,0
2023-01-08T01:46:17.236Z,0
2023-01-08T01:47:17.516Z,0
2023-01-08T01:48:18.321Z,0
2023-01-08T01:49:18.532Z,0
2023-01-08T01:50:19.033Z,0
2023-01-08T01:51:19.537Z,0
2023-01-08T01:52:19.879Z,0
2023-01-08T01:53:20.367Z,0
2023-01-08T01:54:20.063Z,0
2023-01-08T01:55:20.423Z,0
2023-01-08T01:56:21.079Z,0
2023-01-08T01:57:21.715Z,0
2023-01-08T01:58:22.640Z,0
2023-01-08T01:59:23.242Z,0
2023-01-08T02:00:24.295Z,0
2023-01-08T02:01:24.957Z,0
2023-01-08T02:02:28.758Z,0
2023-01-08T02:03:26.518Z,0
2023-01-08T02:04:26.304Z,0
2023-01-08T02:05:27.518Z,0
2023-01-08T02:06:28.233Z,0
2023-01-08T02:07:28.599Z,0
2023-01-08T02:08:29.519Z,0
2023-01-08T02:09:30.163Z,0
2023-01-08T02:10:30.794Z,0
2023-01-08T02:11:31.865Z,0
2023-01-08T02:12:32.362Z,0
2023-01-08T02:13:32.553Z,0
2023-01-08T02:14:33.055Z,0
2023-01-08T02:15:33.731Z,0
2023-01-08T02:16:34.527Z,0
2023-01-08T02:17:34.801Z,0
2023-01-08T02:18:35.980Z,0
2023-01-08T02:19:36.190Z,0
2023-01-08T02:20:36.670Z,0
2023-01-08T02:21:36.870Z,0
2023-01-08T02:22:37.230Z,0
2023-01-08T02:23:37.421Z,0
2023-01-08T02:24:38.656Z,0
2023-01-08T02:25:39.569Z,0
2023-01-08T02:26:39.713Z,0
2023-01-08T02:27:41.200Z,0
2023-01-08T02:28:41.111Z,0
2023-01-08T02:29:42.032Z,0
2023-01-08T02:30:43.737Z,0
2023-01-08T02:31:43.724Z,0
2023-01-08T02:32:44.366Z,0
2023-01-08T02:33:46.203Z,0
2023-01-08T02:34:46.705Z,0
2023-01-08T02:35:47.347Z,0
2023-01-08T02:36:48.126Z,0
2023-01-08T02:37:48.736Z,0
2023-01-08T02:38:48.933Z,0
2023-01-08T02:39:49.424Z,0
2023-01-08T02:40:50.061Z,0
2023-01-08T02:41:51.394Z,0
2023-01-08T02:42:51.334Z,0
2023-01-08T02:43:51.286Z,0
2023-01-08T02:44:52.574Z,0
2023-01-08T02:45:52.794Z,0
2023-01-08T02:46:53.868Z,0
2023-01-08T02:47:54.367Z,0
2023-01-08T02:48:54.913Z,0
2023-01-08T02:49:54.868Z,0
2023-01-08T02:50:55.570Z,0
2023-01-08T02:51:56.258Z,0
2023-01-08T02:52:57.312Z,0
2023-01-08T02:53:57.493Z,0
2023-01-08T02:54:58.436Z,0
2023-01-08T02:55:59.078Z,0
2023-01-08T02:57:00.038Z,0
2023-01-08T02:58:00.257Z,0
2023-01-08T02:59:01.176Z,0
2023-01-08T03:00:02.092Z,0
2023-01-08T03:01:02.642Z,0
2023-01-08T03:02:03.245Z,0
2023-01-08T03:03:03.194Z,0
2023-01-08T03:04:04.851Z,0
2023-01-08T03:05:05.449Z,0
2023-01-08T03:06:05.097Z,0
2023-01-08T03:07:06.093Z,0
2023-01-08T03:08:06.837Z,0
2023-01-08T03:09:08.335Z,0
2023-01-08T03:10:08.313Z,0
2023-01-08T03:11:09.263Z,0
2023-01-08T03:12:09.593Z,0
2023-01-08T03:13:10.500Z,0
2023-01-08T03:14:11.690Z,0
2023-01-08T03:15:11.615Z,0
2023-01-08T03:16:12.793Z,0
2023-01-08T03:17:13.351Z,0
2023-01-08T03:18:13.020Z,0
2023-01-08T03:19:14.461Z,0
2023-01-08T03:20:15.416Z,0
2023-01-08T03:21:15.350Z,0
2023-01-08T03:22:16.029Z,0
2023-01-08T03:23:16.816Z,0
2023-01-08T03:24:17.184Z,0
2023-01-08T03:25:18.402Z,0
2023-01-08T03:26:18.749Z,0
2023-01-08T03:27:19.786Z,0
2023-01-08T03:28:19.999Z,0
2023-01-08T03:29:20.930Z,0
2023-01-08T03:30:21.623Z,0
2023-01-08T03:31:23.011Z,0
2023-01-08T03:32:22.956Z,0
2023-01-08T03:33:23.172Z,0
2023-01-08T03:34:23.620Z,0
2023-01-08T03:35:23.548Z,0
2023-01-08T03:36:24.800Z,0
2023-01-08T03:37:25.321Z,0
2023-01-08T03:38:25.067Z,0
2023-01-08T03:39:25.996Z,0
2023-01-08T03:40:27.557Z,0
2023-01-08T03:41:27.670Z,0
2023-01-08T03:42:28.729Z,0
2023-01-08T03:43:29.940Z,0
2023-01-08T03:44:29.870Z,0
2023-01-08T03:45:30.120Z,0
2023-01-08T03:46:31.458Z,0
2023-01-08T03:47:31.251Z,0
2023-01-08T03:48:31.457Z,0
2023-01-08T03:49:31.923Z,0
2023-01-08T03:50:32.160Z,0
2023-01-08T03:51:32.866Z,0
2023-01-08T03:52:33.391Z,0
2023-01-08T03:53:33.749Z,0
2023-01-08T03:54:33.661Z,0
2023-01-08T03:55:34.869Z,0
2023-01-08T03:56:35.778Z,0
2023-01-08T03:57:36.142Z,0
2023-01-08T03:58:36.391Z,0
2023-01-08T03:59:37.032Z,0
2023-01-08T04:00:37.967Z,0
2023-01-08T04:01:38.788Z,0
2023-01-08T04:02:39.059Z,0
2023-01-08T04:03:39.289Z,0
2023-01-08T04:04:40.730Z,0
2023-01-08T04:05:39.895Z,0
2023-01-08T04:06:40.540Z,0
2023-01-08T04:07:42.110Z,0
2023-01-08T04:08:42.447Z,0
2023-01-08T04:09:42.374Z,0
2023-01-08T04:10:42.597Z,0
2023-01-08T04:11:43.534Z,0
2023-01-08T04:12:43.580Z,0
2023-01-08T04:13:44.515Z,0
2023-01-08T04:14:44.443Z,0
2023-01-08T04:15:45.657Z,0
2023-01-08T04:16:46.592Z,0
2023-01-08T04:17:46.848Z,0
2023-01-08T04:18:47.788Z,0
2023-01-08T04:19:48.530Z,0
2023-01-08T04:20:48.421Z,0
2023-01-08T04:21:49.635Z,0
2023-01-08T04:22:50.259Z,0
2023-01-08T04:23:50.885Z,0
2023-01-08T04:24:50.869Z,0
2023-01-08T04:25:52.102Z,0
2023-01-08T04:26:52.611Z,0
2023-01-08T04:27:53.029Z,0
2023-01-08T04:28:53.421Z,0
2023-01-08T04:29:54.350Z,0
2023-01-08T04:30:54.832Z,0
2023-01-08T04:31:55.312Z,0
2023-01-08T04:32:55.242Z,0
2023-01-08T04:33:55.899Z,0
2023-01-08T04:34:56.627Z,0
2023-01-08T04:35:57.116Z,0
2023-01-08T04:36:57.015Z,0
2023-01-08T04:37:58.245Z,0
2023-01-08T04:38:59.183Z,0
2023-01-08T04:39:59.100Z,0
2023-01-08T04:41:00.019Z,0
2023-01-08T04:41:59.929Z,0
2023-01-08T04:43:00.398Z,0
2023-01-08T04:44:00.596Z,0
2023-01-08T04:45:01.248Z,0
2023-01-08T04:46:02.029Z,0
2023-01-08T04:47:02.762Z,0
2023-01-08T04:48:03.362Z,0
2023-01-08T04:49:04.311Z,0
2023-01-08T04:50:05.043Z,0
2023-01-08T04:51:04.981Z,0
2023-01-08T04:52:06.182Z,0
2023-01-08T04:53:06.105Z,0
2023-01-08T04:54:07.442Z,0
2023-01-08T04:55:07.678Z,0
2023-01-08T04:56:08.631Z,0
2023-01-08T04:57:09.244Z,0
2023-01-08T04:58:09.920Z,0
2023-01-08T04:59:10.856Z,0
2023-01-08T05:00:11.196Z,0
2023-01-08T05:01:12.349Z,0
2023-01-08T05:02:13.888Z,0
2023-01-08T05:03:13.773Z,0
2023-01-08T05:04:13.861Z,0
2023-01-08T05:05:15.317Z,0
2023-01-08T05:06:15.241Z,0
2023-01-08T05:07:15.873Z,0
2023-01-08T05:08:16.605Z,0
2023-01-08T05:09:17.221Z,0
2023-01-08T05:10:17.451Z,0
2023-01-08T05:11:18.696Z,0
2023-01-08T05:12:18.353Z,0
2023-01-08T05:13:19.976Z,0
2023-01-08T05:14:20.197Z,0
2023-01-08T05:15:20.397Z,0
2023-01-08T05:16:21.113Z,0
2023-01-08T05:17:21.514Z,0
2023-01-08T05:18:22.010Z,0
2023-01-08T05:19:22.498Z,0
2023-01-08T05:20:25.244Z,0
2023-01-08T05:21:23.462Z,0
2023-01-08T05:22:23.947Z,0
2023-01-08T05:23:23.600Z,0
2023-01-08T05:24:25.199Z,0
2023-01-08T05:25:25.424Z,0
2023-01-08T05:26:25.343Z,0
2023-01-08T05:27:26.979Z,0
2023-01-08T05:28:27.085Z,0
2023-01-08T05:29:28.011Z,0
2023-01-08T05:30:27.915Z,0
2023-01-08T05:31:29.826Z,0
2023-01-08T05:32:30.466Z,0
2023-01-08T05:33:30.678Z,0
2023-01-08T05:34:31.990Z,0
2023-01-08T05:35:32.179Z,0
2023-01-08T05:36:32.097Z,0
2023-01-08T05:37:33.021Z,0
2023-01-08T05:38:33.699Z,0
2023-01-08T05:39:35.220Z,0
2023-01-08T05:40:35.159Z,0
2023-01-08T05:41:35.643Z,0
2023-01-08T05:42:35.882Z,0
2023-01-08T05:43:36.211Z,0
2023-01-08T05:44:36.556Z,0
2023-01-08T05:45:38.062Z,0
2023-01-08T05:46:38.807Z,0
2023-01-08T05:47:39.249Z,0
2023-01-08T05:48:39.245Z,0
2023-01-08T05:49:40.177Z,0
2023-01-08T05:50:41.318Z,0
2023-01-08T05:51:40.959Z,0
2023-01-08T05:52:40.922Z,0
2023-01-08T05:53:42.130Z,0
2023-01-08T05:54:42.753Z,0
2023-01-08T05:55:43.258Z,0
2023-01-08T05:56:42.873Z,0
2023-01-08T05:57:44.072Z,0
2023-01-08T05:58:43.833Z,0
2023-01-08T05:59:44.459Z,0
2023-01-08T06:00:45.127Z,0
2023-01-08T06:01:46.376Z,0
2023-01-08T06:02:47.797Z,0
2023-01-08T06:03:48.346Z,0
2023-01-08T06:04:48.405Z,0
2023-01-08T06:05:50.128Z,0
2023-01-08T06:06:50.366Z,0
2023-01-08T06:07:50.305Z,0
2023-01-08T06:08:51.720Z,0
2023-01-08T06:09:52.055Z,0
2023-01-08T06:10:51.969Z,0
2023-01-08T06:11:53.169Z,0
2023-01-08T06:12:53.368Z,0
2023-01-08T06:13:53.702Z,0
2023-01-08T06:14:54.068Z,0
2023-01-08T06:15:55.231Z,0
2023-01-08T06:16:55.218Z,0
2023-01-08T06:17:56.600Z,0
2023-01-08T06:18:57.388Z,0
2023-01-08T06:19:57.026Z,0
2023-01-08T06:20:58.461Z,0
2023-01-08T06:21:58.375Z,0
2023-01-08T06:22:59.313Z,0
2023-01-08T06:23:59.676Z,0
2023-01-08T06:25:00.446Z,0
2023-01-08T06:26:01.405Z,0
2023-01-08T06:27:02.929Z,0
2023-01-08T06:28:02.660Z,0
2023-01-08T06:29:04.076Z,0
2023-01-08T06:30:04.741Z,0
2023-01-08T06:31:05.973Z,0
2023-01-08T06:32:05.469Z,0
2023-01-08T06:33:06.513Z,0
2023-01-08T06:34:07.518Z,0
2023-01-08T06:35:08.515Z,4
2023-01-08T06:36:09.166Z,0
2023-01-08T06:37:09.087Z,0
2023-01-08T06:38:10.012Z,0
2023-01-08T06:39:10.529Z,4
2023-01-08T06:40:11.168Z,0
2023-01-08T06:41:11.164Z,4
2023-01-08T06:42:11.905Z,4
2023-01-08T06:43:13.109Z,4
2023-01-08T06:44:12.565Z,4
2023-01-08T06:45:13.776Z,4
2023-01-08T06:46:15.390Z,8
2023-01-08T06:47:15.629Z,8
2023-01-08T06:48:16.715Z,4
2023-01-08T06:49:16.433Z,8
2023-01-08T06:50:16.917Z,12
2023-01-08T06:51:17.286Z,12
2023-01-08T06:52:18.011Z,12
2023-01-08T06:53:18.670Z,16
2023-01-08T06:54:19.588Z,20
2023-01-08T06:55:20.625Z,24
2023-01-08T06:56:20.825Z,28
2023-01-08T06:57:21.443Z,32
2023-01-08T06:58:22.116Z,28
2023-01-08T06:59:22.674Z,28
2023-01-08T07:00:23.187Z,28
2023-01-08T07:01:23.865Z,28
2023-01-08T07:02:25.724Z,32
2023-01-08T07:03:24.824Z,36
2023-01-08T07:04:25.211Z,36
2023-01-08T07:05:25.858Z,40
2023-01-08T07:06:27.490Z,44
2023-01-08T07:07:27.972Z,44
2023-01-08T07:08:28.607Z,52
2023-01-08T07:09:29.217Z,56
2023-01-08T07:10:31.808Z,60
2023-01-08T07:11:30.005Z,68
2023-01-08T07:12:30.211Z,76
2023-01-08T07:13:31.130Z,76
2023-01-08T07:14:31.463Z,84
2023-01-08T07:15:32.711Z,84
2023-01-08T07:16:33.221Z,84
2023-01-08T07:17:33.435Z,88
2023-01-08T07:18:34.193Z,92
2023-01-08T07:19:33.875Z,96
2023-01-08T07:20:35.188Z,96
2023-01-08T07:21:35.958Z,96
2023-01-08T07:22:36.179Z,96
2023-01-08T07:23:36.124Z,96
2023-01-08T07:24:36.776Z,96
2023-01-08T07:25:38.082Z,100
2023-01-08T07:26:38.585Z,104
2023-01-08T07:27:38.820Z,104
2023-01-08T07:28:40.048Z,104
2023-01-08T07:29:39.601Z,108
2023-01-08T07:30:41.564Z,108
2023-01-08T07:31:41.903Z,108
2023-01-08T07:32:41.835Z,116
2023-01-08T07:33:42.180Z,120
2023-01-08T07:34:42.569Z,128
2023-01-08T07:35:42.909Z,136
2023-01-08T07:36:43.974Z,148
2023-01-08T07:37:44.912Z,160
2023-01-08T07:38:45.821Z,172
2023-01-08T07:39:45.523Z,184
2023-01-08T07:40:50.425Z,196
2023-01-08T07:41:47.682Z,204
2023-01-08T07:42:47.649Z,216
2023-01-08T07:43:48.317Z,224
2023-01-08T07:44:49.629Z,232
2023-01-08T07:45:50.283Z,240
2023-01-08T07:46:51.279Z,248
2023-01-08T07:47:51.685Z,252
2023-01-08T07:48:52.721Z,256
2023-01-08T07:49:53.027Z,264
2023-01-08T07:50:53.376Z,268
2023-01-08T07:51:54.537Z,276
2023-01-08T07:52:54.454Z,276
2023-01-08T07:53:55.672Z,284
2023-01-08T07:54:55.596Z,288
2023-01-08T07:55:56.365Z,292
2023-01-08T07:56:57.870Z,300
2023-01-08T07:57:57.805Z,304
2023-01-08T07:58:59.305Z,308
2023-01-08T08:00:00.290Z,316
2023-01-08T08:01:00.225Z,324
2023-01-08T08:02:01.942Z,328
2023-01-08T08:03:02.382Z,340
2023-01-08T08:04:02.873Z,352
2023-01-08T08:05:03.107Z,368
2023-01-08T08:06:03.591Z,380
2023-01-08T08:07:04.022Z,400
2023-01-08T08:08:04.252Z,420
2023-01-08T08:09:04.461Z,448
2023-01-08T08:10:04.941Z,476
2023-01-08T08:11:05.303Z,508
2023-01-08T08:12:05.849Z,540
2023-01-08T08:13:05.772Z,572
2023-01-08T08:14:07.921Z,604
2023-01-08T08:15:07.555Z,632
2023-01-08T08:16:08.324Z,656
2023-01-08T08:17:08.959Z,680
2023-01-08T08:18:08.637Z,696
2023-01-08T08:19:09.972Z,712
2023-01-08T08:20:10.758Z,724
2023-01-08T08:21:10.388Z,732
2023-01-08T08:22:11.557Z,740
2023-01-08T08:23:11.890Z,752
2023-01-08T08:24:11.830Z,768
2023-01-08T08:25:11.758Z,788
2023-01-08T08:26:13.385Z,824
2023-01-08T08:27:13.628Z,852
2023-01-08T08:28:14.119Z,916
2023-01-08T08:29:14.463Z,1068
2023-01-08T08:30:15.332Z,1208
2023-01-08T08:31:17.244Z,1368
2023-01-08T08:32:16.367Z,1476
2023-01-08T08:33:17.601Z,1384
2023-01-08T08:34:17.920Z,1176
2023-01-08T08:35:18.560Z,1024
2023-01-08T08:36:19.770Z,1024
2023-01-08T08:37:20.438Z,980
2023-01-08T08:38:23.204Z,972
2023-01-08T08:39:21.343Z,984
2023-01-08T08:40:21.301Z,1004
2023-01-08T08:41:23.104Z,1012
2023-01-08T08:42:22.740Z,1020
2023-01-08T08:43:23.943Z,1032
2023-01-08T08:44:24.603Z,1052
2023-01-08T08:45:26.194Z,1068
2023-01-08T08:46:26.955Z,1056
2023-01-08T08:47:26.980Z,1060
2023-01-08T08:48:27.943Z,1188
2023-01-08T08:49:29.260Z,1116
2023-01-08T08:50:29.253Z,1164
2023-01-08T08:51:29.220Z,1244
2023-01-08T08:52:30.667Z,1388
2023-01-08T08:53:33.371Z,1488
2023-01-08T08:54:31.599Z,1496
2023-01-08T08:55:31.220Z,1648
2023-01-08T08:56:32.557Z,1736
2023-01-08T08:57:32.517Z,1764
2023-01-08T08:58:33.747Z,1684
2023-01-08T08:59:34.666Z,1736
2023-01-08T09:00:35.406Z,1832
2023-01-08T09:01:37.061Z,1948
2023-01-08T09:02:38.001Z,1688
2023-01-08T09:03:38.002Z,1640
2023-01-08T09:04:38.660Z,1820
2023-01-08T09:05:38.586Z,1772
2023-01-08T09:06:40.094Z,2004
2023-01-08T09:07:40.528Z,2108
2023-01-08T09:08:40.465Z,2080
2023-01-08T09:09:40.730Z,1900
2023-01-08T09:10:41.747Z,1944
2023-01-08T09:11:42.079Z,2056
2023-01-08T09:12:43.314Z,2000
2023-01-08T09:13:43.270Z,1944
2023-01-08T09:14:44.510Z,1844
2023-01-08T09:15:44.467Z,1972
2023-01-08T09:16:45.723Z,1956
2023-01-08T09:17:46.081Z,2280
2023-01-08T09:18:46.733Z,2436
2023-01-08T09:19:48.022Z,2520
2023-01-08T09:20:48.557Z,2200
2023-01-08T09:21:48.632Z,2244
2023-01-08T09:22:50.380Z,1876
2023-01-08T09:23:50.011Z,1776
2023-01-08T09:24:50.921Z,1568
2023-01-08T09:25:50.847Z,1396
2023-01-08T09:26:51.879Z,1408
2023-01-08T09:27:53.383Z,1452
2023-01-08T09:28:53.317Z,1488
2023-01-08T09:29:53.682Z,1940
2023-01-08T09:30:53.886Z,2004
2023-01-08T09:31:55.569Z,1744
2023-01-08T09:32:55.861Z,1568
2023-01-08T09:33:56.327Z,1424
2023-01-08T09:34:58.348Z,1464
2023-01-08T09:35:58.550Z,1732
2023-01-08T09:36:58.760Z,1868
2023-01-08T09:37:58.932Z,1772
2023-01-08T09:38:59.131Z,1696
2023-01-08T09:40:08.719Z,2124
2023-01-08T09:40:59.967Z,2424
2023-01-08T09:42:00.331Z,2372
2023-01-08T09:43:00.835Z,2408
2023-01-08T09:44:01.059Z,2276
2023-01-08T09:45:01.263Z,2296
2023-01-08T09:46:01.899Z,3388
2023-01-08T09:47:02.578Z,4644
2023-01-08T09:48:02.276Z,3380
2023-01-08T09:49:03.208Z,2508
2023-01-08T09:50:04.054Z,2620
2023-01-08T09:51:04.777Z,3584
2023-01-08T09:52:05.424Z,2836
2023-01-08T09:53:06.497Z,2680
2023-01-08T09:54:07.500Z,3516
2023-01-08T09:55:08.505Z,3608
2023-01-08T09:56:20.876Z,3940
2023-01-08T09:57:08.962Z,3628
2023-01-08T09:58:10.199Z,4408
2023-01-08T09:59:10.699Z,4952
2023-01-08T10:00:11.194Z,5196
2023-01-08T10:01:11.931Z,5144
2023-01-08T10:02:12.437Z,5384
2023-01-08T10:03:13.409Z,5872
2023-01-08T10:04:13.907Z,5424
2023-01-08T10:05:13.699Z,4908
2023-01-08T10:06:14.654Z,4252
2023-01-08T10:07:15.154Z,4604
2023-01-08T10:08:15.616Z,4860
2023-01-08T10:09:20.413Z,3968
2023-01-08T10:10:16.326Z,3036
2023-01-08T10:11:17.356Z,2796
2023-01-08T10:12:18.128Z,2460
2023-01-08T10:13:18.801Z,2268
2023-01-08T10:14:19.748Z,2236
2023-01-08T10:15:20.449Z,2304
2023-01-08T10:16:21.953Z,2204
2023-01-08T10:17:22.993Z,2448
2023-01-08T10:18:22.932Z,2144
2023-01-08T10:19:23.132Z,1940
2023-01-08T10:20:23.384Z,2324
2023-01-08T10:21:24.633Z,3760
2023-01-08T10:22:25.138Z,3360
2023-01-08T10:23:25.885Z,4884
2023-01-08T10:24:26.375Z,5480
2023-01-08T10:25:26.628Z,6404
2023-01-08T10:26:26.827Z,7368
2023-01-08T10:27:27.143Z,7316
2023-01-08T10:28:28.108Z,5156
2023-01-08T10:29:28.612Z,4636
2023-01-08T10:30:28.551Z,4560
2023-01-08T10:31:29.672Z,3616
2023-01-08T10:32:29.935Z,3464
2023-01-08T10:33:29.861Z,2944
2023-01-08T10:34:30.367Z,2488
2023-01-08T10:35:30.299Z,2088
2023-01-08T10:36:30.835Z,2148
2023-01-08T10:37:31.056Z,2104
2023-01-08T10:38:33.164Z,2488
2023-01-08T10:39:31.357Z,2660
2023-01-08T10:40:32.629Z,2712
2023-01-08T10:41:33.149Z,5276
2023-01-08T10:42:33.388Z,4168
2023-01-08T10:43:33.608Z,2116
2023-01-08T10:44:33.545Z,1584
2023-01-08T10:45:34.752Z,1384
2023-01-08T10:46:35.076Z,1264
2023-01-08T10:47:35.597Z,1196
2023-01-08T10:48:36.157Z,1116
2023-01-08T10:49:36.071Z,1060
2023-01-08T10:50:36.768Z,1020
2023-01-08T10:51:37.521Z,996
2023-01-08T10:52:38.421Z,980
2023-01-08T10:53:39.400Z,980
2023-01-08T10:54:40.333Z,992
2023-01-08T10:55:40.276Z,1024
2023-01-08T10:56:40.924Z,1052
2023-01-08T10:57:42.151Z,1048
2023-01-08T10:58:42.092Z,1040
2023-01-08T10:59:43.350Z,1032
2023-01-08T11:00:43.726Z,1028
2023-01-08T11:01:44.731Z,1000
2023-01-08T11:02:49.197Z,972
2023-01-08T11:03:46.132Z,960
2023-01-08T11:04:46.070Z,948
2023-01-08T11:05:46.767Z,928
2023-01-08T11:06:48.277Z,900
2023-01-08T11:07:48.765Z,876
2023-01-08T11:08:50.803Z,860
2023-01-08T11:09:49.478Z,856
2023-01-08T11:10:49.696Z,864
2023-01-08T11:11:50.427Z,872
2023-01-08T11:12:50.668Z,880
2023-01-08T11:13:50.886Z,884
2023-01-08T11:14:51.863Z,872
2023-01-08T11:15:52.865Z,860
2023-01-08T11:16:53.255Z,844
2023-01-08T11:17:53.882Z,824
2023-01-08T11:18:54.236Z,808
2023-01-08T11:19:55.997Z,788
2023-01-08T11:20:55.301Z,768
2023-01-08T11:21:55.356Z,756
2023-01-08T11:22:56.295Z,744
2023-01-08T11:23:57.382Z,744
2023-01-08T11:24:58.607Z,768
2023-01-08T11:25:58.517Z,796
2023-01-08T11:26:59.159Z,816
2023-01-08T11:28:00.678Z,856
2023-01-08T11:29:00.623Z,924
2023-01-08T11:30:00.861Z,1044
2023-01-08T11:31:01.390Z,1024
2023-01-08T11:32:01.782Z,928
2023-01-08T11:33:02.014Z,860
2023-01-08T11:34:02.225Z,796
2023-01-08T11:35:03.163Z,740
2023-01-08T11:36:03.691Z,704
2023-01-08T11:37:03.625Z,684
2023-01-08T11:38:04.115Z,680
2023-01-08T11:39:04.184Z,672
2023-01-08T11:40:05.386Z,664
2023-01-08T11:41:05.912Z,632
2023-01-08T11:42:05.967Z,600
2023-01-08T11:43:06.942Z,568
2023-01-08T11:44:06.857Z,540
2023-01-08T11:45:20.521Z,508
2023-01-08T11:46:08.692Z,484
2023-01-08T11:47:08.664Z,460
2023-01-08T11:48:08.585Z,432
2023-01-08T11:49:09.732Z,416
2023-01-08T11:50:09.712Z,412
2023-01-08T11:51:10.681Z,420
2023-01-08T11:52:11.423Z,428
2023-01-08T11:53:12.356Z,432
2023-01-08T11:54:14.274Z,436
2023-01-08T11:55:13.526Z,424
2023-01-08T11:56:14.461Z,416
2023-01-08T11:57:15.427Z,404
2023-01-08T11:58:16.167Z,388
2023-01-08T11:59:17.115Z,368
2023-01-08T12:00:20.195Z,352
2023-01-08T12:01:18.446Z,336
2023-01-08T12:02:19.162Z,324
2023-01-08T12:03:19.712Z,320
2023-01-08T12:04:20.200Z,324
2023-01-08T12:05:21.394Z,340
2023-01-08T12:06:21.911Z,364
2023-01-08T12:07:22.129Z,384
2023-01-08T12:08:21.772Z,384
2023-01-08T12:09:23.297Z,368
2023-01-08T12:10:23.231Z,348
2023-01-08T12:11:24.146Z,324
2023-01-08T12:12:26.260Z,312
2023-01-08T12:13:25.786Z,312
2023-01-08T12:14:26.000Z,320
2023-01-08T12:15:26.574Z,312
2023-01-08T12:16:27.016Z,300
2023-01-08T12:17:30.465Z,288
2023-01-08T12:18:27.964Z,284
2023-01-08T12:19:27.897Z,296
2023-01-08T12:20:28.939Z,312
2023-01-08T12:21:29.607Z,320
2023-01-08T12:22:30.233Z,324
2023-01-08T12:23:30.720Z,332
2023-01-08T12:24:31.269Z,336
2023-01-08T12:25:31.517Z,352
2023-01-08T12:26:31.442Z,360
2023-01-08T12:28:02.990Z,384
2023-01-08T12:28:32.230Z,392
2023-01-08T12:29:32.806Z,408
2023-01-08T12:30:32.551Z,416
2023-01-08T12:31:34.223Z,428
2023-01-08T12:32:34.438Z,444
2023-01-08T12:33:35.657Z,456
2023-01-08T12:34:36.025Z,468
2023-01-08T12:35:36.672Z,484
2023-01-08T12:36:37.963Z,500
2023-01-08T12:37:37.902Z,512
2023-01-08T12:38:38.806Z,528
2023-01-08T12:39:39.426Z,536
2023-01-08T12:40:39.920Z,536
2023-01-08T12:41:40.134Z,528
2023-01-08T12:42:40.243Z,508
2023-01-08T12:43:41.149Z,488
2023-01-08T12:44:41.063Z,472
2023-01-08T12:45:42.357Z,460
2023-01-08T12:46:43.358Z,452
2023-01-08T12:47:43.336Z,448
2023-01-08T12:48:44.828Z,456
2023-01-08T12:49:45.699Z,464
2023-01-08T12:50:45.996Z,476
2023-01-08T12:51:46.527Z,484
2023-01-08T12:52:46.272Z,480
2023-01-08T12:53:47.504Z,476
2023-01-08T12:54:47.753Z,468
2023-01-08T12:55:48.702Z,460
2023-01-08T12:56:48.626Z,448
2023-01-08T12:57:49.599Z,444
2023-01-08T12:58:49.558Z,436
2023-01-08T12:59:50.793Z,424
2023-01-08T13:00:52.120Z,412
2023-01-08T13:01:54.293Z,404
2023-01-08T13:02:52.876Z,400
2023-01-08T13:03:55.122Z,396
2023-01-08T13:04:53.751Z,388
2023-01-08T13:05:54.686Z,380
2023-01-08T13:06:54.901Z,372
2023-01-08T13:07:55.420Z,368
2023-01-08T13:08:55.922Z,356
2023-01-08T13:09:56.700Z,340
2023-01-08T13:10:57.670Z,320
2023-01-08T13:11:57.871Z,296
2023-01-08T13:12:58.619Z,276
2023-01-08T13:13:59.855Z,264
2023-01-08T13:15:00.047Z,260
2023-01-08T13:16:00.690Z,256
2023-01-08T13:17:02.198Z,252
2023-01-08T13:18:02.472Z,240
2023-01-08T13:19:02.830Z,232
2023-01-08T13:20:04.313Z,220
2023-01-08T13:21:04.819Z,208
2023-01-08T13:22:05.114Z,192
2023-01-08T13:23:05.304Z,176
2023-01-08T13:24:05.245Z,160
2023-01-08T13:25:08.003Z,152
2023-01-08T13:26:06.673Z,152
2023-01-08T13:27:07.611Z,148
2023-01-08T13:28:08.558Z,152
2023-01-08T13:29:08.519Z,156
2023-01-08T13:30:09.739Z,168
2023-01-08T13:31:09.960Z,172
2023-01-08T13:32:11.295Z,180
2023-01-08T13:33:11.507Z,188
2023-01-08T13:34:11.706Z,188
2023-01-08T13:35:12.108Z,188
2023-01-08T13:36:12.318Z,188
2023-01-08T13:37:32.449Z,180
2023-01-08T13:38:13.373Z,176
2023-01-08T13:39:14.284Z,172
2023-01-08T13:40:14.538Z,160
2023-01-08T13:41:15.766Z,160
2023-01-08T13:42:15.428Z,168
2023-01-08T13:43:17.040Z,172
2023-01-08T13:44:16.972Z,176
2023-01-08T13:45:17.194Z,180
2023-01-08T13:46:20.129Z,188
2023-01-08T13:47:19.048Z,204
2023-01-08T13:48:19.306Z,216
2023-01-08T13:49:19.800Z,220
2023-01-08T13:50:20.331Z,220
2023-01-08T13:51:21.262Z,220
2023-01-08T13:52:22.208Z,216
2023-01-08T13:53:23.281Z,212
2023-01-08T13:54:23.203Z,200
2023-01-08T13:55:24.483Z,192
2023-01-08T13:56:25.397Z,184
2023-01-08T13:57:26.061Z,184
2023-01-08T13:58:27.609Z,192
2023-01-08T13:59:28.209Z,208
2023-01-08T14:00:28.498Z,220
2023-01-08T14:01:29.040Z,220
2023-01-08T14:02:29.966Z,216
2023-01-08T14:03:30.431Z,204
2023-01-08T14:04:30.728Z,192
2023-01-08T14:05:31.953Z,184
2023-01-08T14:06:32.452Z,176
2023-01-08T14:07:33.237Z,176
2023-01-08T14:08:34.476Z,180
2023-01-08T14:09:34.723Z,188
2023-01-08T14:10:36.039Z,192
2023-01-08T14:11:35.961Z,192
2023-01-08T14:12:36.175Z,196
2023-01-08T14:13:36.889Z,200
2023-01-08T14:14:37.145Z,200
2023-01-08T14:15:37.853Z,196
2023-01-08T14:16:39.365Z,188
2023-01-08T14:17:39.608Z,176
2023-01-08T14:18:40.152Z,164